createdAt,value
2022-07-27T00:01:06.837Z,99381.50
2022-07-27T00:03:36.478Z,99375.31
2022-07-27T00:06:03.698Z,99373.22
2022-07-27T00:08:35.593Z,99374.47
2022-07-27T00:11:03.844Z,99367.72
2022-07-27T00:13:31.815Z,99370.53
2022-07-27T00:15:59.100Z,99364.34
2022-07-27T00:18:26.389Z,99360.53
2022-07-27T00:20:56.247Z,99367.22
2022-07-27T00:23:25.650Z,99378.44
2022-07-27T00:25:53.040Z,99376.69
2022-07-27T00:28:20.266Z,99374.03
2022-07-27T00:30:47.333Z,99368.59
2022-07-27T00:33:16.974Z,99362.25
2022-07-27T00:35:44.800Z,99368.59
2022-07-27T00:38:12.182Z,99368.94
2022-07-27T00:40:39.437Z,99370.59
2022-07-27T00:43:08.834Z,99370.19
2022-07-27T00:45:35.924Z,99372.16
2022-07-27T00:48:05.416Z,99366.69
2022-07-27T00:50:32.807Z,99365.53
2022-07-27T00:52:59.780Z,99371.31
2022-07-27T00:55:27.721Z,99364.53
2022-07-27T00:57:59.429Z,99369.88
2022-07-27T01:00:29.979Z,99367.97
2022-07-27T01:02:59.626Z,99373.56
2022-07-27T01:05:36.717Z,99375.22
2022-07-27T01:08:06.832Z,99369.16
2022-07-27T01:10:34.376Z,99375.84
2022-07-27T01:13:02.334Z,99368.91
2022-07-27T01:15:35.305Z,99374.69
2022-07-27T01:18:07.155Z,99369.06
2022-07-27T01:20:34.824Z,99377.47
2022-07-27T01:23:06.378Z,99376.31
2022-07-27T01:25:33.836Z,99376.91
2022-07-27T01:28:03.470Z,99375.44
2022-07-27T01:30:30.821Z,99373.22
2022-07-27T01:33:06.093Z,99377.75
2022-07-27T01:35:33.754Z,99380.84
2022-07-27T01:38:03.917Z,99371.94
2022-07-27T01:40:34.172Z,99370.31
2022-07-27T01:43:01.551Z,99372.03
2022-07-27T01:45:28.717Z,99379.72
2022-07-27T01:47:55.669Z,99381.44
2022-07-27T01:50:27.858Z,99369.66
2022-07-27T01:52:54.819Z,99375.91
2022-07-27T01:55:21.932Z,99371.19
2022-07-27T01:57:51.702Z,99374.72
2022-07-27T02:00:18.820Z,99372.69
2022-07-27T02:02:45.914Z,99369.28
2022-07-27T02:05:13.250Z,99362.34
2022-07-27T02:07:41.032Z,99365.31
2022-07-27T02:10:12.002Z,99360.72
2022-07-27T02:12:41.560Z,99362.59
2022-07-27T02:15:14.932Z,99354.19
2022-07-27T02:17:44.873Z,99360.81
2022-07-27T02:20:22.367Z,99362.41
2022-07-27T02:22:50.978Z,99359.84
2022-07-27T02:25:19.772Z,99364.00
2022-07-27T02:27:48.018Z,99365.00
2022-07-27T02:30:17.813Z,99355.50
2022-07-27T02:32:45.171Z,99351.63
2022-07-27T02:35:19.550Z,99341.84
2022-07-27T02:37:48.990Z,99345.06
2022-07-27T02:40:17.581Z,99342.50
2022-07-27T02:42:46.220Z,99353.88
2022-07-27T02:45:15.563Z,99347.78
2022-07-27T02:47:43.589Z,99354.53
2022-07-27T02:50:13.515Z,99341.88
2022-07-27T02:52:43.333Z,99349.78
2022-07-27T02:55:10.897Z,99346.63
2022-07-27T02:57:41.158Z,99348.72
2022-07-27T03:00:12.642Z,99348.53
2022-07-27T03:02:42.501Z,99353.41
2022-07-27T03:05:11.617Z,99348.78
2022-07-27T03:07:41.017Z,99354.38
2022-07-27T03:10:15.348Z,99354.38
2022-07-27T03:12:45.796Z,99354.22
2022-07-27T03:15:15.276Z,99360.97
2022-07-27T03:17:42.735Z,99363.03
2022-07-27T03:20:14.415Z,99355.78
2022-07-27T03:22:42.131Z,99359.75
2022-07-27T03:25:11.777Z,99360.31
2022-07-27T03:27:39.033Z,99358.81
2022-07-27T03:30:07.119Z,99365.75
2022-07-27T03:32:34.136Z,99366.88
2022-07-27T03:35:01.287Z,99364.44
2022-07-27T03:37:28.231Z,99375.78
2022-07-27T03:39:56.199Z,99365.91
2022-07-27T03:42:23.390Z,99378.00
2022-07-27T03:44:52.089Z,99372.00
2022-07-27T03:47:19.078Z,99378.50
2022-07-27T03:49:46.398Z,99375.28
2022-07-27T03:52:17.673Z,99378.09
2022-07-27T03:54:46.646Z,99376.78
2022-07-27T03:57:15.009Z,99375.03
2022-07-27T03:59:42.061Z,99377.25
2022-07-27T04:02:09.393Z,99385.13
2022-07-27T04:04:36.580Z,99392.19
2022-07-27T04:07:03.625Z,99389.72
2022-07-27T04:09:30.598Z,99380.34
2022-07-27T04:12:02.083Z,99378.00
2022-07-27T04:14:30.455Z,99380.72
2022-07-27T04:16:57.725Z,99384.75
2022-07-27T04:19:27.278Z,99383.75
2022-07-27T04:21:54.238Z,99376.03
2022-07-27T04:24:21.470Z,99378.25
2022-07-27T04:26:48.729Z,99384.91
2022-07-27T04:29:20.809Z,99383.66
2022-07-27T04:31:48.798Z,99377.88
2022-07-27T04:34:16.049Z,99384.09
2022-07-27T04:36:43.044Z,99386.53
2022-07-27T04:39:10.628Z,99385.41
2022-07-27T04:41:38.065Z,99397.41
2022-07-27T04:44:05.422Z,99395.97
2022-07-27T04:46:37.568Z,99394.56
2022-07-27T04:49:04.886Z,99399.91
2022-07-27T04:51:35.485Z,99409.84
2022-07-27T04:54:03.438Z,99407.06
2022-07-27T04:56:30.638Z,99404.69
2022-07-27T04:58:59.989Z,99416.84
2022-07-27T05:01:31.679Z,99419.69
2022-07-27T05:04:04.193Z,99420.41
2022-07-27T05:06:33.046Z,99419.69
2022-07-27T05:09:04.785Z,99420.72
2022-07-27T05:11:32.000Z,99421.81
2022-07-27T05:13:59.165Z,99421.03
2022-07-27T05:16:29.205Z,99420.91
2022-07-27T05:18:57.483Z,99420.44
2022-07-27T05:21:25.614Z,99427.66
2022-07-27T05:23:52.673Z,99430.16
2022-07-27T05:26:20.036Z,99434.78
2022-07-27T05:28:47.201Z,99430.47
2022-07-27T05:31:17.037Z,99434.47
2022-07-27T05:33:49.838Z,99434.84
2022-07-27T05:36:17.894Z,99430.53
2022-07-27T05:38:50.367Z,99423.25
2022-07-27T05:41:23.953Z,99440.81
2022-07-27T05:43:55.470Z,99443.88
2022-07-27T05:46:32.449Z,99440.78
2022-07-27T05:49:00.170Z,99438.31
2022-07-27T05:51:27.463Z,99436.00
2022-07-27T05:53:57.813Z,99432.81
2022-07-27T05:56:25.329Z,99440.19
2022-07-27T05:58:52.977Z,99445.22
2022-07-27T06:01:20.809Z,99443.63
2022-07-27T06:03:50.654Z,99450.84
2022-07-27T06:06:56.197Z,99453.19
2022-07-27T06:09:23.879Z,99445.28
2022-07-27T06:11:51.092Z,99453.06
2022-07-27T06:14:20.593Z,99444.38
2022-07-27T06:16:50.584Z,99463.94
2022-07-27T06:19:17.719Z,99459.81
2022-07-27T06:21:53.133Z,99463.59
2022-07-27T06:24:21.128Z,99474.16
2022-07-27T06:26:48.082Z,99469.59
2022-07-27T06:29:15.397Z,99472.69
2022-07-27T06:31:44.136Z,99472.34
2022-07-27T06:34:14.853Z,99485.28
2022-07-27T06:36:43.711Z,99478.28
2022-07-27T06:39:12.377Z,99478.41
2022-07-27T06:41:39.752Z,99475.31
2022-07-27T06:44:12.443Z,99483.09
2022-07-27T06:46:42.006Z,99487.13
2022-07-27T06:49:11.715Z,99481.06
2022-07-27T06:51:39.236Z,99493.00
2022-07-27T06:54:09.110Z,99494.88
2022-07-27T06:56:37.554Z,99492.59
2022-07-27T06:59:04.757Z,99499.41
2022-07-27T07:01:32.047Z,99493.41
2022-07-27T07:04:01.611Z,99499.59
2022-07-27T07:06:28.719Z,99502.94
2022-07-27T07:08:56.019Z,99507.50
2022-07-27T07:11:23.051Z,99502.53
2022-07-27T07:13:52.641Z,99505.88
2022-07-27T07:16:24.776Z,99504.72
2022-07-27T07:18:54.222Z,99506.53
2022-07-27T07:21:23.506Z,99497.91
2022-07-27T07:23:53.341Z,99499.28
2022-07-27T07:26:20.437Z,99504.88
2022-07-27T07:28:49.800Z,99514.09
2022-07-27T07:31:19.990Z,99503.97
2022-07-27T07:33:47.753Z,99504.13
2022-07-27T07:36:17.605Z,99504.78
2022-07-27T07:38:44.978Z,99507.31
2022-07-27T07:41:12.884Z,99504.16
2022-07-27T07:43:42.428Z,99507.97
2022-07-27T07:46:09.796Z,99492.13
2022-07-27T07:48:39.162Z,99496.13
2022-07-27T07:51:06.220Z,99493.75
2022-07-27T07:53:35.547Z,99496.72
2022-07-27T07:56:06.481Z,99494.31
2022-07-27T07:58:33.727Z,99495.28
2022-07-27T08:01:01.558Z,99488.69
2022-07-27T08:03:31.194Z,99498.28
2022-07-27T08:05:58.447Z,99496.41
2022-07-27T08:08:27.527Z,99497.25
2022-07-27T08:10:54.584Z,99494.22
2022-07-27T08:13:24.250Z,99505.53
2022-07-27T08:15:53.028Z,99491.41
2022-07-27T08:18:20.288Z,99498.28
2022-07-27T08:20:49.958Z,99484.16
2022-07-27T08:23:17.294Z,99489.31
2022-07-27T08:25:44.620Z,99484.47
2022-07-27T08:28:11.781Z,99491.63
2022-07-27T08:30:39.775Z,99500.78
2022-07-27T08:33:07.179Z,99491.63
2022-07-27T08:35:35.058Z,99487.78
2022-07-27T08:38:05.161Z,99494.94
2022-07-27T08:40:40.169Z,99493.28
2022-07-27T08:43:12.964Z,99489.53
2022-07-27T08:45:45.708Z,99502.84
2022-07-27T08:48:14.017Z,99506.69
2022-07-27T08:50:42.803Z,99493.84
2022-07-27T08:53:12.564Z,99497.53
2022-07-27T08:55:43.456Z,99489.41
2022-07-27T08:58:12.390Z,99497.78
2022-07-27T09:00:44.840Z,99487.34
2022-07-27T09:03:19.167Z,99496.06
2022-07-27T09:05:57.952Z,99490.28
2022-07-27T09:08:30.909Z,99487.22
2022-07-27T09:10:59.807Z,99483.34
2022-07-27T09:13:33.443Z,99477.63
2022-07-27T09:16:21.451Z,99485.16
2022-07-27T09:18:59.287Z,99485.16
2022-07-27T09:21:29.294Z,99490.00
2022-07-27T09:23:59.524Z,99483.25
2022-07-27T09:26:32.383Z,99487.06
2022-07-27T09:29:12.394Z,99491.69
2022-07-27T09:31:48.766Z,99499.94
2022-07-27T09:34:36.706Z,99484.59
2022-07-27T09:37:06.538Z,99494.53
2022-07-27T09:39:33.939Z,99489.50
2022-07-27T09:42:03.913Z,99490.66
2022-07-27T09:44:43.266Z,99485.97
2022-07-27T09:47:29.534Z,99484.72
2022-07-27T09:49:59.094Z,99476.84
2022-07-27T09:52:29.687Z,99477.41
2022-07-27T09:55:05.531Z,99470.59
2022-07-27T09:57:56.030Z,99481.28
2022-07-27T10:00:24.246Z,99472.91
2022-07-27T10:02:52.583Z,99486.41
2022-07-27T10:05:22.928Z,99473.28
2022-07-27T10:07:53.476Z,99482.31
2022-07-27T10:10:23.942Z,99476.06
2022-07-27T10:12:54.922Z,99474.84
2022-07-27T10:15:24.995Z,99480.47
2022-07-27T10:18:14.047Z,99484.53
2022-07-27T10:20:47.814Z,99484.31
2022-07-27T10:23:34.960Z,99484.09
2022-07-27T10:26:21.861Z,99489.91
2022-07-27T10:28:52.090Z,99481.38
2022-07-27T10:31:36.037Z,99482.81
2022-07-27T10:34:05.852Z,99478.72
2022-07-27T10:36:32.960Z,99477.31
2022-07-27T10:39:06.478Z,99480.19
2022-07-27T10:41:41.849Z,99480.13
2022-07-27T10:44:15.267Z,99480.34
2022-07-27T10:46:50.913Z,99470.06
2022-07-27T10:49:19.822Z,99479.03
2022-07-27T10:51:48.017Z,99474.72
2022-07-27T10:54:38.154Z,99470.09
2022-07-27T10:57:09.208Z,99470.81
2022-07-27T11:00:06.754Z,99463.78
2022-07-27T11:02:41.253Z,99459.63
2022-07-27T11:05:42.671Z,99459.09
2022-07-27T11:08:47.545Z,99461.44
2022-07-27T11:10:48.343Z,99457.50
2022-07-27T11:13:20.936Z,99458.69
2022-07-27T11:16:23.411Z,99461.44
2022-07-27T11:19:01.733Z,99452.63
2022-07-27T11:21:34.878Z,99453.94
2022-07-27T11:24:16.529Z,99457.38
2022-07-27T11:26:47.146Z,99454.34
2022-07-27T11:29:16.564Z,99449.94
2022-07-27T11:31:55.510Z,99458.16
2022-07-27T11:34:38.263Z,99455.34
2022-07-27T11:37:19.874Z,99456.41
2022-07-27T11:40:32.319Z,99462.56
2022-07-27T11:42:40.443Z,99465.78
2022-07-27T11:45:10.541Z,99462.84
2022-07-27T11:47:37.589Z,99461.38
2022-07-27T11:50:07.425Z,99458.88
2022-07-27T11:52:34.799Z,99458.34
2022-07-27T11:55:02.017Z,99464.91
2022-07-27T11:57:36.153Z,99476.91
2022-07-27T12:00:05.306Z,99471.78
2022-07-27T12:02:51.054Z,99480.72
2022-07-27T12:05:18.835Z,99473.97
2022-07-27T12:07:46.063Z,99505.31
2022-07-27T12:10:13.581Z,99491.16
2022-07-27T12:12:40.888Z,99500.06
2022-07-27T12:15:44.704Z,99496.06
2022-07-27T12:18:06.670Z,99496.34
2022-07-27T12:20:36.717Z,99482.66
2022-07-27T12:23:09.845Z,99482.97
2022-07-27T12:25:39.094Z,99477.19
2022-07-27T12:28:12.741Z,99475.28
2022-07-27T12:30:40.684Z,99471.97
2022-07-27T12:33:28.248Z,99466.09
2022-07-27T12:35:56.333Z,99465.69
2022-07-27T12:38:38.835Z,99457.94
2022-07-27T12:41:06.132Z,99454.47
2022-07-27T12:43:35.655Z,99454.13
2022-07-27T12:46:13.925Z,99459.63
2022-07-27T12:48:43.295Z,99450.63
2022-07-27T12:51:11.315Z,99442.78
2022-07-27T12:53:39.428Z,99439.94
2022-07-27T12:56:12.005Z,99450.09
2022-07-27T12:58:40.115Z,99448.31
2022-07-27T13:01:09.609Z,99445.91
2022-07-27T13:03:37.228Z,99450.00
2022-07-27T13:06:08.053Z,99439.81
2022-07-27T13:08:40.887Z,99442.66
2022-07-27T13:11:07.972Z,99445.31
2022-07-27T13:13:37.552Z,99436.59
2022-07-27T13:16:05.305Z,99443.44
2022-07-27T13:18:32.409Z,99440.06
2022-07-27T13:21:03.974Z,99439.78
2022-07-27T13:23:33.608Z,99449.00
2022-07-27T13:26:03.885Z,99441.00
2022-07-27T13:28:30.911Z,99448.78
2022-07-27T13:31:00.569Z,99446.13
2022-07-27T13:33:27.652Z,99451.47
2022-07-27T13:36:00.554Z,99440.88
2022-07-27T13:38:30.937Z,99451.84
2022-07-27T13:41:00.825Z,99444.34
2022-07-27T13:43:27.980Z,99449.69
2022-07-27T13:45:55.300Z,99448.06
2022-07-27T13:48:22.515Z,99454.75
2022-07-27T13:50:49.582Z,99452.00
2022-07-27T13:53:24.303Z,99456.31
2022-07-27T13:55:51.459Z,99450.34
2022-07-27T13:58:18.810Z,99457.09
2022-07-27T14:00:49.727Z,99458.25
2022-07-27T14:03:19.495Z,99451.41
2022-07-27T14:05:48.933Z,99451.63
2022-07-27T14:08:19.066Z,99446.34
2022-07-27T14:10:46.138Z,99444.22
2022-07-27T14:13:17.733Z,99450.72
2022-07-27T14:15:54.297Z,99447.00
2022-07-27T14:18:25.596Z,99441.50
2022-07-27T14:20:53.694Z,99436.19
2022-07-27T14:23:25.155Z,99438.59
2022-07-27T14:25:53.351Z,99438.13
2022-07-27T14:28:20.474Z,99436.94
2022-07-27T14:30:50.115Z,99439.44
2022-07-27T14:33:17.880Z,99441.16
2022-07-27T14:35:48.107Z,99431.84
2022-07-27T14:38:24.886Z,99439.59
2022-07-27T14:40:58.428Z,99443.69
2022-07-27T14:43:25.578Z,99446.78
2022-07-27T14:45:52.694Z,99440.25
2022-07-27T14:48:32.436Z,99437.53
2022-07-27T14:51:09.557Z,99443.00
2022-07-27T14:53:39.054Z,99437.34
2022-07-27T14:56:06.086Z,99439.41
2022-07-27T14:58:33.185Z,99433.75
2022-07-27T15:01:02.107Z,99443.50
2022-07-27T15:03:29.288Z,99440.66
2022-07-27T15:05:56.275Z,99451.25
2022-07-27T15:08:26.740Z,99442.63
2022-07-27T15:10:54.059Z,99435.16
2022-07-27T15:16:03.882Z,99434.59
2022-07-27T15:18:36.500Z,99439.38
2022-07-27T15:21:12.722Z,99437.69
2022-07-27T15:23:43.885Z,99436.38
2022-07-27T15:26:12.607Z,99430.13
2022-07-27T15:28:40.855Z,99424.84
2022-07-27T15:31:08.182Z,99422.75
2022-07-27T15:33:37.823Z,99418.09
2022-07-27T15:36:05.196Z,99414.91
2022-07-27T15:38:32.733Z,99420.06
2022-07-27T15:40:59.678Z,99415.28
2022-07-27T15:43:26.795Z,99418.94
2022-07-27T15:45:53.987Z,99410.09
2022-07-27T15:48:22.098Z,99406.28
2022-07-27T15:50:51.948Z,99408.13
2022-07-27T15:53:23.143Z,99394.50
2022-07-27T15:55:52.574Z,99402.34
2022-07-27T15:58:20.922Z,99395.81
2022-07-27T16:00:56.070Z,99395.19
2022-07-27T16:03:25.609Z,99395.19
2022-07-27T16:05:54.797Z,99393.13
2022-07-27T16:08:22.272Z,99390.78
2022-07-27T16:10:51.475Z,99394.63
2022-07-27T16:13:18.928Z,99394.38
2022-07-27T16:16:04.887Z,99396.19
2022-07-27T16:18:36.800Z,99397.94
2022-07-27T16:21:06.219Z,99396.69
2022-07-27T16:23:34.080Z,99399.53
2022-07-27T16:26:04.413Z,99393.03
2022-07-27T16:28:34.126Z,99389.22
2022-07-27T16:31:01.809Z,99393.25
2022-07-27T16:33:31.655Z,99387.03
2022-07-27T16:35:58.938Z,99382.94
2022-07-27T16:38:26.108Z,99392.47
2022-07-27T16:40:53.605Z,99390.56
2022-07-27T16:43:20.660Z,99393.56
2022-07-27T16:45:50.232Z,99404.84
2022-07-27T16:48:19.779Z,99403.03
2022-07-27T16:50:47.174Z,99407.16
2022-07-27T16:53:17.297Z,99414.91
2022-07-27T16:55:44.292Z,99414.78
2022-07-27T16:58:14.030Z,99418.81
2022-07-27T17:00:41.495Z,99426.34
2022-07-27T17:03:08.611Z,99426.34
2022-07-27T17:05:35.808Z,99423.16
2022-07-27T17:08:04.078Z,99427.47
2022-07-27T17:10:31.548Z,99426.00
2022-07-27T17:12:58.808Z,99432.06
2022-07-27T17:15:26.420Z,99442.69
2022-07-27T17:17:53.373Z,99438.91
2022-07-27T17:20:32.953Z,99443.19
2022-07-27T17:23:04.490Z,99434.50
2022-07-27T17:25:31.578Z,99437.53
2022-07-27T17:27:58.606Z,99434.25
2022-07-27T17:30:25.946Z,99434.25
2022-07-27T17:32:54.171Z,99437.72
2022-07-27T17:35:21.298Z,99428.03
2022-07-27T17:38:05.688Z,99437.97
2022-07-27T17:40:35.661Z,99432.44
2022-07-27T17:43:05.488Z,99432.84
2022-07-27T17:45:32.758Z,99432.72
2022-07-27T17:48:00.195Z,99431.28
2022-07-27T17:50:27.460Z,99427.72
2022-07-27T17:52:57.881Z,99434.00
2022-07-27T17:55:25.568Z,99431.94
2022-07-27T17:57:53.246Z,99436.13
2022-07-27T18:00:20.866Z,99431.34
2022-07-27T18:02:47.879Z,99429.88
2022-07-27T18:05:15.213Z,99438.00
2022-07-27T18:07:42.168Z,99442.66
2022-07-27T18:10:09.508Z,99445.59
2022-07-27T18:12:36.895Z,99444.38
2022-07-27T18:15:23.509Z,99451.69
2022-07-27T18:17:50.922Z,99454.28
2022-07-27T18:20:21.136Z,99457.34
2022-07-27T18:22:54.180Z,99462.22
2022-07-27T18:25:37.147Z,99460.38
2022-07-27T18:28:10.503Z,99465.38
2022-07-27T18:30:42.267Z,99462.78
2022-07-27T18:33:20.407Z,99461.53
2022-07-27T18:35:48.209Z,99472.81
2022-07-27T18:38:22.141Z,99470.03
2022-07-27T18:40:53.565Z,99489.13
2022-07-27T18:43:27.160Z,99487.34
2022-07-27T18:45:56.238Z,99501.47
2022-07-27T18:48:23.861Z,99502.03
2022-07-27T18:50:54.170Z,99503.69
2022-07-27T18:53:24.790Z,99503.59
2022-07-27T18:55:56.606Z,99497.97
2022-07-27T18:58:27.119Z,99516.41
2022-07-27T19:00:57.012Z,99520.03
2022-07-27T19:03:24.683Z,99521.25
2022-07-27T19:05:56.973Z,99528.84
2022-07-27T19:08:24.163Z,99540.28
2022-07-27T19:10:51.450Z,99535.41
2022-07-27T19:13:18.808Z,99538.81
2022-07-27T19:15:46.077Z,99554.25
2022-07-27T19:18:13.250Z,99552.31
2022-07-27T19:20:42.853Z,99555.28
2022-07-27T19:23:12.481Z,99561.94
2022-07-27T19:25:40.365Z,99562.97
2022-07-27T19:28:11.097Z,99569.47
2022-07-27T19:30:41.115Z,99561.50
2022-07-27T19:33:10.225Z,99563.28
2022-07-27T19:35:40.032Z,99574.34
2022-07-27T19:38:08.592Z,99575.84
2022-07-27T19:40:44.585Z,99564.56
2022-07-27T19:43:17.572Z,99567.09
2022-07-27T19:45:46.098Z,99573.72
2022-07-27T19:48:16.288Z,99567.59
2022-07-27T19:50:48.059Z,99568.47
2022-07-27T19:53:16.194Z,99574.78
2022-07-27T19:55:45.033Z,99580.56
2022-07-27T19:58:16.972Z,99585.16
2022-07-27T20:00:50.489Z,99591.66
2022-07-27T20:03:20.072Z,99595.09
2022-07-27T20:05:51.654Z,99605.53
2022-07-27T20:08:23.283Z,99608.03
2022-07-27T20:10:50.793Z,99601.06
2022-07-27T20:13:18.613Z,99605.44
2022-07-27T20:15:45.910Z,99611.19
2022-07-27T20:18:14.267Z,99614.56
2022-07-27T20:20:44.385Z,99615.72
2022-07-27T20:23:11.537Z,99616.00
2022-07-27T20:25:39.205Z,99613.69
2022-07-27T20:28:06.565Z,99608.81
2022-07-27T20:30:33.890Z,99610.88
2022-07-27T20:33:01.096Z,99606.00
2022-07-27T20:35:36.613Z,99611.31
2022-07-27T20:38:07.190Z,99605.44
2022-07-27T20:40:36.776Z,99611.97
2022-07-27T20:43:06.293Z,99610.38
2022-07-27T20:45:33.402Z,99607.41
2022-07-27T20:48:00.687Z,99609.31
2022-07-27T20:50:30.403Z,99611.97
2022-07-27T20:52:58.324Z,99615.66
2022-07-27T20:55:25.571Z,99617.44
2022-07-27T20:57:57.516Z,99620.81
2022-07-27T21:00:28.926Z,99620.81
2022-07-27T21:02:58.983Z,99617.59
2022-07-27T21:05:28.531Z,99609.09
2022-07-27T21:07:58.857Z,99614.31
2022-07-27T21:10:28.746Z,99611.75
2022-07-27T21:12:58.601Z,99622.97
2022-07-27T21:15:33.638Z,99623.13
2022-07-27T21:18:04.274Z,99613.59
2022-07-27T21:20:31.619Z,99625.84
2022-07-27T21:23:17.410Z,99629.06
2022-07-27T21:25:44.857Z,99646.34
2022-07-27T21:28:16.852Z,99641.91
2022-07-27T21:30:46.436Z,99640.25
2022-07-27T21:33:16.268Z,99647.75
2022-07-27T21:35:43.408Z,99646.53
2022-07-27T21:38:10.798Z,99651.97
2022-07-27T21:40:38.037Z,99665.50
2022-07-27T21:43:05.106Z,99664.00
2022-07-27T21:45:32.418Z,99665.75
2022-07-27T21:47:59.871Z,99662.94
2022-07-27T21:50:27.267Z,99667.97
2022-07-27T21:52:57.150Z,99669.88
2022-07-27T21:55:24.412Z,99669.88
2022-07-27T21:57:52.299Z,99672.91
2022-07-27T22:00:25.416Z,99659.88
2022-07-27T22:02:52.751Z,99667.22
2022-07-27T22:05:22.751Z,99677.94
2022-07-27T22:07:53.100Z,99674.06
2022-07-27T22:10:23.006Z,99669.78
2022-07-27T22:12:50.052Z,99675.66
2022-07-27T22:15:19.381Z,99678.84
2022-07-27T22:17:50.130Z,99674.72
2022-07-27T22:20:20.060Z,99677.34
2022-07-27T22:22:48.434Z,99671.56
2022-07-27T22:25:18.859Z,99677.59
2022-07-27T22:27:49.096Z,99670.91
2022-07-27T22:30:16.855Z,99666.47
2022-07-27T22:32:48.950Z,99664.47
2022-07-27T22:35:16.482Z,99669.16
2022-07-27T22:37:46.019Z,99665.84
2022-07-27T22:40:13.360Z,99665.84
2022-07-27T22:42:43.979Z,99664.19
2022-07-27T22:45:14.128Z,99659.91
2022-07-27T22:47:42.570Z,99659.72
2022-07-27T22:50:12.328Z,99664.75
2022-07-27T22:52:45.576Z,99665.91
2022-07-27T22:55:15.031Z,99668.38
2022-07-27T22:57:44.631Z,99666.34
2022-07-27T23:00:12.222Z,99664.84
2022-07-27T23:02:39.355Z,99673.66
2022-07-27T23:05:07.047Z,99664.84
2022-07-27T23:07:36.432Z,99672.34
2022-07-27T23:10:06.207Z,99680.41
2022-07-27T23:12:33.300Z,99679.84
2022-07-27T23:15:01.160Z,99679.09
2022-07-27T23:17:28.187Z,99679.50
2022-07-27T23:19:57.801Z,99685.09
2022-07-27T23:22:27.440Z,99683.94
2022-07-27T23:24:54.465Z,99691.81
2022-07-27T23:27:21.562Z,99696.88
2022-07-27T23:29:48.768Z,99698.34
2022-07-27T23:32:15.882Z,99687.00
2022-07-27T23:34:42.909Z,99693.00
2022-07-27T23:37:10.035Z,99688.69
2022-07-27T23:39:37.057Z,99691.31
2022-07-27T23:42:04.185Z,99690.06
2022-07-27T23:44:31.716Z,99695.09
2022-07-27T23:47:04.930Z,99686.88
2022-07-27T23:49:32.208Z,99689.31
2022-07-27T23:52:02.598Z,99691.03
2022-07-27T23:54:32.440Z,99686.34
2022-07-27T23:56:59.667Z,99687.16
2022-07-27T23:59:26.754Z,99689.00
